sensor_id;sensor_type;location;lat;lon;timestamp;temperature;humidity
34698;DHT22;61391;50.922;6.928;2023-07-28T00:02:21;17.50;99.90
34698;DHT22;61391;50.922;6.928;2023-07-28T00:04:52;17.50;99.90
34698;DHT22;61391;50.922;6.928;2023-07-28T00:07:19;17.50;99.90
34698;DHT22;61391;50.922;6.928;2023-07-28T00:09:48;17.60;99.90
34698;DHT22;61391;50.922;6.928;2023-07-28T00:12:16;17.40;99.90
34698;DHT22;61391;50.922;6.928;2023-07-28T00:15:05;17.40;99.90
34698;DHT22;61391;50.922;6.928;2023-07-28T00:17:35;17.50;99.90
34698;DHT22;61391;50.922;6.928;2023-07-28T00:20:01;17.60;99.90
34698;DHT22;61391;50.922;6.928;2023-07-28T00:22:31;17.50;99.90
34698;DHT22;61391;50.922;6.928;2023-07-28T00:25:26;17.50;99.90
34698;DHT22;61391;50.922;6.928;2023-07-28T00:27:56;17.50;99.90
34698;DHT22;61391;50.922;6.928;2023-07-28T00:30:24;17.50;99.90
34698;DHT22;61391;50.922;6.928;2023-07-28T00:32:54;17.60;99.90
34698;DHT22;61391;50.922;6.928;2023-07-28T00:35:19;17.60;99.90
34698;DHT22;61391;50.922;6.928;2023-07-28T00:41:11;17.80;99.90
34698;DHT22;61391;50.922;6.928;2023-07-28T00:43:48;17.60;99.90
34698;DHT22;61391;50.922;6.928;2023-07-28T00:46:17;17.80;99.90
34698;DHT22;61391;50.922;6.928;2023-07-28T00:48:44;17.70;99.90
34698;DHT22;61391;50.922;6.928;2023-07-28T00:51:13;17.70;99.90
34698;DHT22;61391;50.922;6.928;2023-07-28T00:53:40;17.90;99.90
34698;DHT22;61391;50.922;6.928;2023-07-28T00:56:09;18.00;99.90
34698;DHT22;61391;50.922;6.928;2023-07-28T00:58:40;17.80;99.90
34698;DHT22;61391;50.922;6.928;2023-07-28T01:01:07;17.70;99.90
34698;DHT22;61391;50.922;6.928;2023-07-28T01:03:35;17.70;99.90
34698;DHT22;61391;50.922;6.928;2023-07-28T01:09:24;17.80;99.90
34698;DHT22;61391;50.922;6.928;2023-07-28T01:12:06;17.80;99.90
34698;DHT22;61391;50.922;6.928;2023-07-28T01:14:37;17.80;99.90
34698;DHT22;61391;50.922;6.928;2023-07-28T01:17:15;17.80;99.90
34698;DHT22;61391;50.922;6.928;2023-07-28T01:19:47;18.00;99.90
34698;DHT22;61391;50.922;6.928;2023-07-28T01:22:45;18.20;99.90
34698;DHT22;61391;50.922;6.928;2023-07-28T01:25:47;18.10;99.90
34698;DHT22;61391;50.922;6.928;2023-07-28T01:28:16;18.20;99.90
34698;DHT22;61391;50.922;6.928;2023-07-28T01:30:43;18.30;99.90
34698;DHT22;61391;50.922;6.928;2023-07-28T01:33:09;18.20;99.90
34698;DHT22;61391;50.922;6.928;2023-07-28T01:35:37;18.30;99.90
34698;DHT22;61391;50.922;6.928;2023-07-28T01:38:04;18.40;99.90
34698;DHT22;61391;50.922;6.928;2023-07-28T01:40:33;18.50;99.90
34698;DHT22;61391;50.922;6.928;2023-07-28T01:46:28;18.00;99.90
34698;DHT22;61391;50.922;6.928;2023-07-28T01:52:25;17.90;99.90
34698;DHT22;61391;50.922;6.928;2023-07-28T01:54:58;18.00;99.90
34698;DHT22;61391;50.922;6.928;2023-07-28T01:57:39;18.00;99.90
34698;DHT22;61391;50.922;6.928;2023-07-28T02:00:08;18.00;99.90
34698;DHT22;61391;50.922;6.928;2023-07-28T02:02:39;18.00;99.90
34698;DHT22;61391;50.922;6.928;2023-07-28T02:08:28;17.90;99.90
34698;DHT22;61391;50.922;6.928;2023-07-28T02:10:55;17.80;99.90
34698;DHT22;61391;50.922;6.928;2023-07-28T02:13:21;17.80;99.90
34698;DHT22;61391;50.922;6.928;2023-07-28T02:15:46;17.70;99.90
34698;DHT22;61391;50.922;6.928;2023-07-28T02:18:14;17.60;99.90
34698;DHT22;61391;50.922;6.928;2023-07-28T02:20:49;17.60;99.90
34698;DHT22;61391;50.922;6.928;2023-07-28T02:23:15;17.70;99.90
34698;DHT22;61391;50.922;6.928;2023-07-28T02:26:04;17.70;99.90
34698;DHT22;61391;50.922;6.928;2023-07-28T02:28:35;17.80;99.90
34698;DHT22;61391;50.922;6.928;2023-07-28T02:31:01;17.80;99.90
34698;DHT22;61391;50.922;6.928;2023-07-28T02:36:51;17.80;99.90
34698;DHT22;61391;50.922;6.928;2023-07-28T02:42:51;17.50;99.90
34698;DHT22;61391;50.922;6.928;2023-07-28T02:45:18;17.40;99.90
34698;DHT22;61391;50.922;6.928;2023-07-28T02:47:45;17.50;99.90
34698;DHT22;61391;50.922;6.928;2023-07-28T02:50:13;17.50;99.90
34698;DHT22;61391;50.922;6.928;2023-07-28T02:52:39;17.40;99.90
34698;DHT22;61391;50.922;6.928;2023-07-28T02:58:37;17.50;99.90
34698;DHT22;61391;50.922;6.928;2023-07-28T03:01:05;17.40;99.90
34698;DHT22;61391;50.922;6.928;2023-07-28T03:03:33;17.50;99.90
34698;DHT22;61391;50.922;6.928;2023-07-28T03:09:21;17.50;99.90
34698;DHT22;61391;50.922;6.928;2023-07-28T03:11:48;17.60;99.90
34698;DHT22;61391;50.922;6.928;2023-07-28T03:14:15;17.60;99.90
34698;DHT22;61391;50.922;6.928;2023-07-28T03:16:42;17.60;99.90
34698;DHT22;61391;50.922;6.928;2023-07-28T03:19:18;17.50;99.90
34698;DHT22;61391;50.922;6.928;2023-07-28T03:21:53;17.40;99.90
34698;DHT22;61391;50.922;6.928;2023-07-28T03:24:19;17.50;99.90
34698;DHT22;61391;50.922;6.928;2023-07-28T03:30:09;17.70;99.90
34698;DHT22;61391;50.922;6.928;2023-07-28T03:32:37;17.60;99.90
34698;DHT22;61391;50.922;6.928;2023-07-28T03:35:05;17.60;99.90
34698;DHT22;61391;50.922;6.928;2023-07-28T03:40:58;17.70;99.90
34698;DHT22;61391;50.922;6.928;2023-07-28T03:43:25;17.60;99.90
34698;DHT22;61391;50.922;6.928;2023-07-28T03:45:51;17.70;99.90
34698;DHT22;61391;50.922;6.928;2023-07-28T03:48:24;17.70;99.90
34698;DHT22;61391;50.922;6.928;2023-07-28T03:50:53;17.60;99.90
34698;DHT22;61391;50.922;6.928;2023-07-28T03:53:19;17.60;99.90
34698;DHT22;61391;50.922;6.928;2023-07-28T03:55:53;17.60;99.90
34698;DHT22;61391;50.922;6.928;2023-07-28T04:01:46;17.50;99.90
34698;DHT22;61391;50.922;6.928;2023-07-28T04:04:14;17.50;99.90
34698;DHT22;61391;50.922;6.928;2023-07-28T04:06:48;17.40;99.90
34698;DHT22;61391;50.922;6.928;2023-07-28T04:09:20;17.50;99.90
34698;DHT22;61391;50.922;6.928;2023-07-28T04:11:46;17.60;99.90
34698;DHT22;61391;50.922;6.928;2023-07-28T04:14:13;17.60;99.90
34698;DHT22;61391;50.922;6.928;2023-07-28T04:17:01;17.60;99.90
34698;DHT22;61391;50.922;6.928;2023-07-28T04:19:29;17.80;99.90
34698;DHT22;61391;50.922;6.928;2023-07-28T04:21:57;17.70;99.90
34698;DHT22;61391;50.922;6.928;2023-07-28T04:24:25;17.70;99.90
34698;DHT22;61391;50.922;6.928;2023-07-28T04:26:54;17.80;99.90
34698;DHT22;61391;50.922;6.928;2023-07-28T04:29:21;17.80;99.90
34698;DHT22;61391;50.922;6.928;2023-07-28T04:31:53;17.90;99.90
34698;DHT22;61391;50.922;6.928;2023-07-28T04:37:23;17.90;99.90
34698;DHT22;61391;50.922;6.928;2023-07-28T04:40:10;17.80;99.90
34698;DHT22;61391;50.922;6.928;2023-07-28T04:42:47;17.80;99.90
34698;DHT22;61391;50.922;6.928;2023-07-28T04:45:18;17.70;99.90
34698;DHT22;61391;50.922;6.928;2023-07-28T04:47:43;17.80;99.90
34698;DHT22;61391;50.922;6.928;2023-07-28T04:50:17;17.80;99.90
34698;DHT22;61391;50.922;6.928;2023-07-28T04:52:42;17.70;99.90
34698;DHT22;61391;50.922;6.928;2023-07-28T04:55:09;17.80;99.90
34698;DHT22;61391;50.922;6.928;2023-07-28T04:57:38;17.90;99.90
34698;DHT22;61391;50.922;6.928;2023-07-28T05:00:13;17.90;99.90
34698;DHT22;61391;50.922;6.928;2023-07-28T05:03:07;17.90;99.90
34698;DHT22;61391;50.922;6.928;2023-07-28T05:05:34;18.00;99.90
34698;DHT22;61391;50.922;6.928;2023-07-28T05:08:01;18.10;99.90
34698;DHT22;61391;50.922;6.928;2023-07-28T05:10:26;18.10;99.90
34698;DHT22;61391;50.922;6.928;2023-07-28T05:12:52;18.10;99.90
34698;DHT22;61391;50.922;6.928;2023-07-28T05:15:18;18.10;99.90
34698;DHT22;61391;50.922;6.928;2023-07-28T05:17:44;18.20;99.90
34698;DHT22;61391;50.922;6.928;2023-07-28T05:20:10;18.30;99.90
34698;DHT22;61391;50.922;6.928;2023-07-28T05:22:36;18.30;99.90
34698;DHT22;61391;50.922;6.928;2023-07-28T05:25:02;18.10;99.90
34698;DHT22;61391;50.922;6.928;2023-07-28T05:27:30;18.10;99.90
34698;DHT22;61391;50.922;6.928;2023-07-28T05:29:56;18.20;99.90
34698;DHT22;61391;50.922;6.928;2023-07-28T05:32:22;18.20;99.90
34698;DHT22;61391;50.922;6.928;2023-07-28T05:34:50;18.20;99.90
34698;DHT22;61391;50.922;6.928;2023-07-28T05:37:16;18.30;99.90
34698;DHT22;61391;50.922;6.928;2023-07-28T05:39:42;18.40;99.90
34698;DHT22;61391;50.922;6.928;2023-07-28T05:42:09;18.50;99.90
34698;DHT22;61391;50.922;6.928;2023-07-28T05:44:35;18.90;99.90
34698;DHT22;61391;50.922;6.928;2023-07-28T05:47:01;18.90;99.90
34698;DHT22;61391;50.922;6.928;2023-07-28T05:49:26;18.90;99.90
34698;DHT22;61391;50.922;6.928;2023-07-28T05:51:52;19.10;99.90
34698;DHT22;61391;50.922;6.928;2023-07-28T05:54:18;19.20;99.90
34698;DHT22;61391;50.922;6.928;2023-07-28T05:56:44;19.10;99.90
34698;DHT22;61391;50.922;6.928;2023-07-28T05:59:10;18.80;99.90
34698;DHT22;61391;50.922;6.928;2023-07-28T06:01:35;19.00;99.90
34698;DHT22;61391;50.922;6.928;2023-07-28T06:04:01;19.00;99.90
34698;DHT22;61391;50.922;6.928;2023-07-28T06:06:27;19.10;99.90
34698;DHT22;61391;50.922;6.928;2023-07-28T06:08:53;19.20;99.90
34698;DHT22;61391;50.922;6.928;2023-07-28T06:11:20;19.10;99.90
34698;DHT22;61391;50.922;6.928;2023-07-28T06:13:50;19.10;99.90
34698;DHT22;61391;50.922;6.928;2023-07-28T06:16:37;19.20;99.90
34698;DHT22;61391;50.922;6.928;2023-07-28T06:26:21;19.30;99.90
34698;DHT22;61391;50.922;6.928;2023-07-28T06:35:50;19.60;99.90
34698;DHT22;61391;50.922;6.928;2023-07-28T06:38:23;19.60;99.90
34698;DHT22;61391;50.922;6.928;2023-07-28T06:40:54;19.50;99.90
34698;DHT22;61391;50.922;6.928;2023-07-28T06:43:21;19.60;99.90
34698;DHT22;61391;50.922;6.928;2023-07-28T06:55:48;19.60;99.90
34698;DHT22;61391;50.922;6.928;2023-07-28T06:58:16;19.60;99.90
34698;DHT22;61391;50.922;6.928;2023-07-28T07:00:50;19.60;99.90
34698;DHT22;61391;50.922;6.928;2023-07-28T07:03:25;19.80;99.90
34698;DHT22;61391;50.922;6.928;2023-07-28T07:06:01;19.70;99.90
34698;DHT22;61391;50.922;6.928;2023-07-28T07:12:00;19.70;99.90
34698;DHT22;61391;50.922;6.928;2023-07-28T07:18:06;19.80;99.90
34698;DHT22;61391;50.922;6.928;2023-07-28T07:20:35;19.90;99.90
34698;DHT22;61391;50.922;6.928;2023-07-28T07:23:01;20.10;99.90
34698;DHT22;61391;50.922;6.928;2023-07-28T07:26:02;20.20;99.90
34698;DHT22;61391;50.922;6.928;2023-07-28T07:42:17;20.50;99.90
34698;DHT22;61391;50.922;6.928;2023-07-28T08:01:25;20.80;99.90
34698;DHT22;61391;50.922;6.928;2023-07-28T08:07:13;21.00;99.90
34698;DHT22;61391;50.922;6.928;2023-07-28T08:13:12;21.40;99.90
34698;DHT22;61391;50.922;6.928;2023-07-28T08:15:44;21.80;99.90
34698;DHT22;61391;50.922;6.928;2023-07-28T08:18:13;22.00;99.90
34698;DHT22;61391;50.922;6.928;2023-07-28T08:20:45;22.20;99.90
34698;DHT22;61391;50.922;6.928;2023-07-28T08:23:11;22.50;99.90
34698;DHT22;61391;50.922;6.928;2023-07-28T08:25:37;22.90;99.90
34698;DHT22;61391;50.922;6.928;2023-07-28T08:28:03;22.90;99.90
34698;DHT22;61391;50.922;6.928;2023-07-28T08:30:29;23.20;99.90
34698;DHT22;61391;50.922;6.928;2023-07-28T08:32:57;23.30;99.90
34698;DHT22;61391;50.922;6.928;2023-07-28T08:35:23;23.30;99.90
34698;DHT22;61391;50.922;6.928;2023-07-28T08:38:07;23.20;99.90
34698;DHT22;61391;50.922;6.928;2023-07-28T08:40:33;23.20;99.90
34698;DHT22;61391;50.922;6.928;2023-07-28T08:42:59;23.20;99.90
34698;DHT22;61391;50.922;6.928;2023-07-28T08:45:25;23.10;99.90
34698;DHT22;61391;50.922;6.928;2023-07-28T08:47:52;23.00;99.90
34698;DHT22;61391;50.922;6.928;2023-07-28T08:50:18;23.20;99.90
34698;DHT22;61391;50.922;6.928;2023-07-28T08:52:43;23.70;99.90
34698;DHT22;61391;50.922;6.928;2023-07-28T08:55:09;24.50;99.90
34698;DHT22;61391;50.922;6.928;2023-07-28T08:57:35;25.00;99.90
34698;DHT22;61391;50.922;6.928;2023-07-28T09:00:11;25.70;99.90
34698;DHT22;61391;50.922;6.928;2023-07-28T09:02:39;26.00;99.90
34698;DHT22;61391;50.922;6.928;2023-07-28T09:05:05;26.90;99.90
34698;DHT22;61391;50.922;6.928;2023-07-28T09:07:35;27.60;99.90
34698;DHT22;61391;50.922;6.928;2023-07-28T09:10:02;28.90;99.90
34698;DHT22;61391;50.922;6.928;2023-07-28T09:15:49;31.10;99.90
34698;DHT22;61391;50.922;6.928;2023-07-28T09:18:16;32.10;99.90
34698;DHT22;61391;50.922;6.928;2023-07-28T09:20:42;31.70;99.90
34698;DHT22;61391;50.922;6.928;2023-07-28T09:23:10;31.20;99.90
34698;DHT22;61391;50.922;6.928;2023-07-28T09:25:37;30.80;99.90
34698;DHT22;61391;50.922;6.928;2023-07-28T09:28:03;30.10;99.90
34698;DHT22;61391;50.922;6.928;2023-07-28T09:30:45;29.30;99.90
34698;DHT22;61391;50.922;6.928;2023-07-28T09:33:11;28.30;99.90
34698;DHT22;61391;50.922;6.928;2023-07-28T09:35:49;27.80;99.90
34698;DHT22;61391;50.922;6.928;2023-07-28T09:38:15;27.80;99.90
34698;DHT22;61391;50.922;6.928;2023-07-28T09:40:42;27.30;99.90
34698;DHT22;61391;50.922;6.928;2023-07-28T09:43:08;27.00;99.90
34698;DHT22;61391;50.922;6.928;2023-07-28T09:45:35;26.60;99.90
34698;DHT22;61391;50.922;6.928;2023-07-28T09:48:02;26.60;99.90
34698;DHT22;61391;50.922;6.928;2023-07-28T09:50:32;26.30;99.90
34698;DHT22;61391;50.922;6.928;2023-07-28T09:53:02;26.10;99.90
34698;DHT22;61391;50.922;6.928;2023-07-28T09:55:29;25.90;99.90
34698;DHT22;61391;50.922;6.928;2023-07-28T09:57:56;25.80;99.90
34698;DHT22;61391;50.922;6.928;2023-07-28T10:00:23;25.70;99.90
34698;DHT22;61391;50.922;6.928;2023-07-28T10:02:50;25.60;99.90
34698;DHT22;61391;50.922;6.928;2023-07-28T10:05:16;25.60;99.90
34698;DHT22;61391;50.922;6.928;2023-07-28T10:07:43;25.40;99.90
34698;DHT22;61391;50.922;6.928;2023-07-28T10:10:12;25.30;99.90
34698;DHT22;61391;50.922;6.928;2023-07-28T10:12:48;25.00;99.90
34698;DHT22;61391;50.922;6.928;2023-07-28T10:15:15;25.00;99.90
34698;DHT22;61391;50.922;6.928;2023-07-28T10:17:51;24.90;99.90
34698;DHT22;61391;50.922;6.928;2023-07-28T10:20:36;25.20;99.90
34698;DHT22;61391;50.922;6.928;2023-07-28T10:23:12;26.20;99.90
34698;DHT22;61391;50.922;6.928;2023-07-28T10:25:39;26.70;99.90
34698;DHT22;61391;50.922;6.928;2023-07-28T10:28:25;27.00;99.90
34698;DHT22;61391;50.922;6.928;2023-07-28T10:30:54;27.10;99.90
34698;DHT22;61391;50.922;6.928;2023-07-28T10:33:34;27.30;99.90
34698;DHT22;61391;50.922;6.928;2023-07-28T10:36:32;27.40;99.90
34698;DHT22;61391;50.922;6.928;2023-07-28T10:42:23;26.90;99.90
34698;DHT22;61391;50.922;6.928;2023-07-28T10:44:49;26.60;99.90
34698;DHT22;61391;50.922;6.928;2023-07-28T10:47:15;26.20;99.90
34698;DHT22;61391;50.922;6.928;2023-07-28T10:49:41;25.90;99.90
34698;DHT22;61391;50.922;6.928;2023-07-28T10:52:06;26.10;99.90
34698;DHT22;61391;50.922;6.928;2023-07-28T11:01:16;26.80;99.90
34698;DHT22;61391;50.922;6.928;2023-07-28T11:03:41;27.00;99.90
34698;DHT22;61391;50.922;6.928;2023-07-28T11:06:07;27.30;99.90
34698;DHT22;61391;50.922;6.928;2023-07-28T11:08:33;27.60;99.90
34698;DHT22;61391;50.922;6.928;2023-07-28T11:11:03;28.10;99.90
34698;DHT22;61391;50.922;6.928;2023-07-28T11:13:29;28.10;99.90
34698;DHT22;61391;50.922;6.928;2023-07-28T11:15:55;28.00;99.90
34698;DHT22;61391;50.922;6.928;2023-07-28T11:18:25;27.70;99.90
34698;DHT22;61391;50.922;6.928;2023-07-28T11:20:51;27.30;99.90
34698;DHT22;61391;50.922;6.928;2023-07-28T11:23:17;26.80;99.90
34698;DHT22;61391;50.922;6.928;2023-07-28T11:25:43;26.50;99.90
34698;DHT22;61391;50.922;6.928;2023-07-28T11:28:09;26.30;99.90
34698;DHT22;61391;50.922;6.928;2023-07-28T11:30:36;26.30;99.90
34698;DHT22;61391;50.922;6.928;2023-07-28T11:33:10;26.20;99.90
34698;DHT22;61391;50.922;6.928;2023-07-28T11:35:39;26.30;99.90
34698;DHT22;61391;50.922;6.928;2023-07-28T11:38:06;26.60;99.90
34698;DHT22;61391;50.922;6.928;2023-07-28T11:40:33;26.90;99.90
34698;DHT22;61391;50.922;6.928;2023-07-28T11:42:59;26.70;99.90
34698;DHT22;61391;50.922;6.928;2023-07-28T11:45:24;26.50;99.90
34698;DHT22;61391;50.922;6.928;2023-07-28T11:48:04;26.20;99.90
34698;DHT22;61391;50.922;6.928;2023-07-28T11:50:41;25.90;99.90
34698;DHT22;61391;50.922;6.928;2023-07-28T11:53:09;25.60;99.90
34698;DHT22;61391;50.922;6.928;2023-07-28T11:55:36;25.50;99.90
34698;DHT22;61391;50.922;6.928;2023-07-28T11:58:03;25.60;99.90
34698;DHT22;61391;50.922;6.928;2023-07-28T12:00:35;26.20;99.90
34698;DHT22;61391;50.922;6.928;2023-07-28T12:03:08;26.70;99.90
34698;DHT22;61391;50.922;6.928;2023-07-28T12:05:42;27.30;99.90
34698;DHT22;61391;50.922;6.928;2023-07-28T12:08:39;28.10;99.90
34698;DHT22;61391;50.922;6.928;2023-07-28T12:11:05;28.20;99.90
34698;DHT22;61391;50.922;6.928;2023-07-28T12:13:32;28.40;99.90
34698;DHT22;61391;50.922;6.928;2023-07-28T12:16:00;28.40;99.90
34698;DHT22;61391;50.922;6.928;2023-07-28T12:18:30;28.50;99.90
34698;DHT22;61391;50.922;6.928;2023-07-28T12:20:56;28.40;99.90
34698;DHT22;61391;50.922;6.928;2023-07-28T12:23:23;28.60;99.90
34698;DHT22;61391;50.922;6.928;2023-07-28T12:25:49;28.40;99.90
34698;DHT22;61391;50.922;6.928;2023-07-28T12:28:16;28.20;99.90
34698;DHT22;61391;50.922;6.928;2023-07-28T12:30:41;27.90;99.90
34698;DHT22;61391;50.922;6.928;2023-07-28T12:33:08;27.80;99.90
34698;DHT22;61391;50.922;6.928;2023-07-28T12:35:34;27.30;99.90
34698;DHT22;61391;50.922;6.928;2023-07-28T12:38:04;26.90;99.90
34698;DHT22;61391;50.922;6.928;2023-07-28T12:40:31;26.40;99.90
34698;DHT22;61391;50.922;6.928;2023-07-28T12:42:58;26.20;99.90
34698;DHT22;61391;50.922;6.928;2023-07-28T12:45:24;26.00;99.90
34698;DHT22;61391;50.922;6.928;2023-07-28T12:47:52;25.80;99.90
34698;DHT22;61391;50.922;6.928;2023-07-28T12:50:18;25.80;99.90
34698;DHT22;61391;50.922;6.928;2023-07-28T12:52:44;25.80;99.90
34698;DHT22;61391;50.922;6.928;2023-07-28T12:55:10;25.80;99.90
34698;DHT22;61391;50.922;6.928;2023-07-28T12:57:35;26.00;99.90
34698;DHT22;61391;50.922;6.928;2023-07-28T13:00:02;26.10;99.90
34698;DHT22;61391;50.922;6.928;2023-07-28T13:02:40;25.90;99.90
34698;DHT22;61391;50.922;6.928;2023-07-28T13:05:08;25.80;99.90
34698;DHT22;61391;50.922;6.928;2023-07-28T13:07:36;25.60;99.90
34698;DHT22;61391;50.922;6.928;2023-07-28T13:10:02;25.40;99.90
34698;DHT22;61391;50.922;6.928;2023-07-28T13:12:28;25.20;99.90
34698;DHT22;61391;50.922;6.928;2023-07-28T13:14:54;25.10;99.90
34698;DHT22;61391;50.922;6.928;2023-07-28T13:17:20;25.20;99.90
34698;DHT22;61391;50.922;6.928;2023-07-28T13:19:47;25.30;99.90
34698;DHT22;61391;50.922;6.928;2023-07-28T13:22:12;25.60;99.90
34698;DHT22;61391;50.922;6.928;2023-07-28T13:24:38;26.00;99.90
34698;DHT22;61391;50.922;6.928;2023-07-28T13:27:04;26.50;99.90
34698;DHT22;61391;50.922;6.928;2023-07-28T13:29:30;26.70;99.90
34698;DHT22;61391;50.922;6.928;2023-07-28T13:31:59;27.20;99.90
34698;DHT22;61391;50.922;6.928;2023-07-28T13:37:47;27.40;99.90
34698;DHT22;61391;50.922;6.928;2023-07-28T13:40:14;27.10;99.90
34698;DHT22;61391;50.922;6.928;2023-07-28T13:42:40;27.10;99.90
34698;DHT22;61391;50.922;6.928;2023-07-28T13:45:06;27.20;99.90
34698;DHT22;61391;50.922;6.928;2023-07-28T13:47:32;27.10;99.90
34698;DHT22;61391;50.922;6.928;2023-07-28T13:49:57;27.20;99.90
34698;DHT22;61391;50.922;6.928;2023-07-28T13:52:23;27.10;99.90
34698;DHT22;61391;50.922;6.928;2023-07-28T13:54:48;27.20;99.90
34698;DHT22;61391;50.922;6.928;2023-07-28T13:57:14;27.20;99.90
34698;DHT22;61391;50.922;6.928;2023-07-28T13:59:40;27.20;99.90
34698;DHT22;61391;50.922;6.928;2023-07-28T14:02:05;26.90;99.90
34698;DHT22;61391;50.922;6.928;2023-07-28T14:04:31;26.40;99.90
34698;DHT22;61391;50.922;6.928;2023-07-28T14:06:57;26.40;99.90
34698;DHT22;61391;50.922;6.928;2023-07-28T14:09:24;26.30;99.90
34698;DHT22;61391;50.922;6.928;2023-07-28T14:11:49;26.10;99.90
34698;DHT22;61391;50.922;6.928;2023-07-28T14:14:16;26.20;99.90
34698;DHT22;61391;50.922;6.928;2023-07-28T14:16:42;25.90;99.90
34698;DHT22;61391;50.922;6.928;2023-07-28T14:19:10;26.20;99.90
34698;DHT22;61391;50.922;6.928;2023-07-28T14:21:36;26.10;99.90
34698;DHT22;61391;50.922;6.928;2023-07-28T14:24:06;25.90;99.90
34698;DHT22;61391;50.922;6.928;2023-07-28T14:26:31;26.40;99.90
34698;DHT22;61391;50.922;6.928;2023-07-28T14:28:57;26.40;99.90
34698;DHT22;61391;50.922;6.928;2023-07-28T14:31:23;26.40;99.90
34698;DHT22;61391;50.922;6.928;2023-07-28T14:33:48;26.30;99.90
34698;DHT22;61391;50.922;6.928;2023-07-28T14:36:15;26.40;99.90
34698;DHT22;61391;50.922;6.928;2023-07-28T14:38:41;26.40;99.90
34698;DHT22;61391;50.922;6.928;2023-07-28T14:41:07;26.40;99.90
34698;DHT22;61391;50.922;6.928;2023-07-28T14:43:33;26.10;99.90
34698;DHT22;61391;50.922;6.928;2023-07-28T14:45:58;25.30;99.90
34698;DHT22;61391;50.922;6.928;2023-07-28T14:48:27;25.30;99.90
34698;DHT22;61391;50.922;6.928;2023-07-28T14:50:52;25.50;99.90
34698;DHT22;61391;50.922;6.928;2023-07-28T14:53:33;25.60;99.90
34698;DHT22;61391;50.922;6.928;2023-07-28T14:55:59;25.60;99.90
34698;DHT22;61391;50.922;6.928;2023-07-28T14:58:26;25.10;99.90
34698;DHT22;61391;50.922;6.928;2023-07-28T15:00:53;25.00;99.90
34698;DHT22;61391;50.922;6.928;2023-07-28T15:03:19;24.80;99.90
34698;DHT22;61391;50.922;6.928;2023-07-28T15:05:44;24.70;99.90
34698;DHT22;61391;50.922;6.928;2023-07-28T15:08:10;24.40;99.90
34698;DHT22;61391;50.922;6.928;2023-07-28T15:10:36;24.70;99.90
34698;DHT22;61391;50.922;6.928;2023-07-28T15:13:02;24.80;99.90
34698;DHT22;61391;50.922;6.928;2023-07-28T15:15:29;24.70;99.90
34698;DHT22;61391;50.922;6.928;2023-07-28T15:17:55;24.60;99.90
34698;DHT22;61391;50.922;6.928;2023-07-28T15:20:20;24.50;99.90
34698;DHT22;61391;50.922;6.928;2023-07-28T15:22:47;24.40;99.90
34698;DHT22;61391;50.922;6.928;2023-07-28T15:25:13;24.10;99.90
34698;DHT22;61391;50.922;6.928;2023-07-28T15:27:42;24.20;99.90
34698;DHT22;61391;50.922;6.928;2023-07-28T15:30:09;24.40;99.90
34698;DHT22;61391;50.922;6.928;2023-07-28T15:32:35;24.20;99.90
34698;DHT22;61391;50.922;6.928;2023-07-28T15:35:01;24.50;99.90
34698;DHT22;61391;50.922;6.928;2023-07-28T15:37:28;24.50;99.90
34698;DHT22;61391;50.922;6.928;2023-07-28T15:39:54;24.50;99.90
34698;DHT22;61391;50.922;6.928;2023-07-28T15:45:45;24.50;99.90
34698;DHT22;61391;50.922;6.928;2023-07-28T15:48:17;24.50;99.90
34698;DHT22;61391;50.922;6.928;2023-07-28T15:50:43;24.80;99.90
34698;DHT22;61391;50.922;6.928;2023-07-28T15:53:08;24.90;99.90
34698;DHT22;61391;50.922;6.928;2023-07-28T15:55:34;25.00;99.90
34698;DHT22;61391;50.922;6.928;2023-07-28T15:58:01;25.10;99.90
34698;DHT22;61391;50.922;6.928;2023-07-28T16:03:51;25.40;99.90
34698;DHT22;61391;50.922;6.928;2023-07-28T16:06:17;25.40;99.90
34698;DHT22;61391;50.922;6.928;2023-07-28T16:08:42;25.30;99.90
34698;DHT22;61391;50.922;6.928;2023-07-28T16:11:09;24.90;99.90
34698;DHT22;61391;50.922;6.928;2023-07-28T16:13:35;24.90;99.90
34698;DHT22;61391;50.922;6.928;2023-07-28T16:16:04;25.10;99.90
34698;DHT22;61391;50.922;6.928;2023-07-28T16:18:29;25.40;99.90
34698;DHT22;61391;50.922;6.928;2023-07-28T16:20:57;25.40;99.90
34698;DHT22;61391;50.922;6.928;2023-07-28T16:26:45;25.30;99.90
34698;DHT22;61391;50.922;6.928;2023-07-28T16:29:11;25.10;99.90
34698;DHT22;61391;50.922;6.928;2023-07-28T16:31:37;25.30;99.90
34698;DHT22;61391;50.922;6.928;2023-07-28T16:34:04;25.10;99.90
34698;DHT22;61391;50.922;6.928;2023-07-28T16:36:30;25.20;99.90
34698;DHT22;61391;50.922;6.928;2023-07-28T16:38:58;25.30;99.90
34698;DHT22;61391;50.922;6.928;2023-07-28T16:41:23;25.20;99.90
34698;DHT22;61391;50.922;6.928;2023-07-28T16:43:49;25.20;99.90
34698;DHT22;61391;50.922;6.928;2023-07-28T16:46:15;24.90;99.90
34698;DHT22;61391;50.922;6.928;2023-07-28T16:48:41;24.80;99.90
34698;DHT22;61391;50.922;6.928;2023-07-28T16:51:07;25.00;99.90
34698;DHT22;61391;50.922;6.928;2023-07-28T16:53:32;24.90;99.90
34698;DHT22;61391;50.922;6.928;2023-07-28T16:55:58;25.00;99.90
34698;DHT22;61391;50.922;6.928;2023-07-28T16:58:23;24.90;99.90
34698;DHT22;61391;50.922;6.928;2023-07-28T17:00:49;25.10;99.90
34698;DHT22;61391;50.922;6.928;2023-07-28T17:03:15;25.20;99.90
34698;DHT22;61391;50.922;6.928;2023-07-28T17:05:40;25.20;99.90
34698;DHT22;61391;50.922;6.928;2023-07-28T17:08:06;25.40;99.90
34698;DHT22;61391;50.922;6.928;2023-07-28T17:10:31;25.30;99.90
34698;DHT22;61391;50.922;6.928;2023-07-28T17:12:57;25.40;99.90
34698;DHT22;61391;50.922;6.928;2023-07-28T17:15:23;25.40;99.90
34698;DHT22;61391;50.922;6.928;2023-07-28T17:17:49;25.40;99.90
34698;DHT22;61391;50.922;6.928;2023-07-28T17:20:15;25.40;99.90
34698;DHT22;61391;50.922;6.928;2023-07-28T17:22:44;25.40;99.90
34698;DHT22;61391;50.922;6.928;2023-07-28T17:25:09;25.30;99.90
34698;DHT22;61391;50.922;6.928;2023-07-28T17:27:35;25.10;99.90
34698;DHT22;61391;50.922;6.928;2023-07-28T17:33:23;24.70;99.90
34698;DHT22;61391;50.922;6.928;2023-07-28T17:35:51;24.40;99.90
34698;DHT22;61391;50.922;6.928;2023-07-28T17:38:17;24.40;99.90
34698;DHT22;61391;50.922;6.928;2023-07-28T17:40:43;24.50;99.90
34698;DHT22;61391;50.922;6.928;2023-07-28T17:43:08;24.50;99.90
34698;DHT22;61391;50.922;6.928;2023-07-28T17:45:35;24.40;99.90
34698;DHT22;61391;50.922;6.928;2023-07-28T17:48:01;24.40;99.90
34698;DHT22;61391;50.922;6.928;2023-07-28T17:50:26;24.40;99.90
34698;DHT22;61391;50.922;6.928;2023-07-28T17:52:52;24.20;99.90
34698;DHT22;61391;50.922;6.928;2023-07-28T17:58:39;23.90;99.90
34698;DHT22;61391;50.922;6.928;2023-07-28T18:01:05;23.70;99.90
34698;DHT22;61391;50.922;6.928;2023-07-28T18:03:31;23.50;99.90
34698;DHT22;61391;50.922;6.928;2023-07-28T18:09:20;23.10;99.90